Time;durP1;ratioP1;P1;durP2;ratioP2;P2;SDS_P1;SDS_P2;PMS_P1;PMS_P2;Temp;Humidity;BMP_temperature;BMP_pressure;BME280_temperature;BME280_humidity;BME280_pressure;Samples;Min_cycle;Max_cycle;Signal;HPM_P1;HPM_P2
2021/03/20 00:00:53;;;;;;;12.68;10.85;;;-1.70;1.40;;;-0.88;100.00;95800.22;649829;212;42183;-75
2021/03/20 00:03:23;;;;;;;12.50;9.67;;;-1.90;1.40;;;-0.97;100.00;95808.14;641157;221;23514;-76
2021/03/20 00:05:52;;;;;;;10.90;9.43;;;-2.00;1.40;;;-1.13;100.00;95807.02;641291;220;29006;-76
2021/03/20 00:08:21;;;;;;;12.77;10.73;;;-2.10;1.40;;;-1.23;100.00;95808.35;644493;218;32822;-75
2021/03/20 00:10:50;;;;;;;10.57;9.50;;;-2.20;1.40;;;-1.43;100.00;95810.72;670079;211;23458;-76
2021/03/20 00:13:19;;;;;;;12.25;10.95;;;-2.40;1.40;;;-1.45;100.00;95810.01;665365;211;32342;-76
2021/03/20 00:18:22;;;;;;;13.93;11.38;;;-2.50;1.40;;;-1.85;100.00;95819.26;648485;216;31618;-76
2021/03/20 00:20:51;;;;;;;10.33;9.33;;;-2.60;1.40;;;-1.97;100.00;95817.66;639482;220;29857;-75
2021/03/20 00:23:20;;;;;;;9.27;8.27;;;-2.70;1.40;;;-2.05;100.00;95813.34;643970;220;25651;-75
2021/03/20 00:25:49;;;;;;;9.70;8.60;;;-2.90;1.40;;;-2.14;100.00;95817.03;640715;221;26692;-76
2021/03/20 00:28:22;;;;;;;12.35;9.73;;;-2.90;1.40;;;-2.19;100.00;95817.20;635656;221;31767;-76
2021/03/20 00:30:53;;;;;;;9.70;8.70;;;-2.90;1.40;;;-2.25;100.00;95818.77;639639;220;23605;-76
2021/03/20 00:35:51;;;;;;;10.98;9.25;;;-3.00;1.40;;;-2.38;100.00;95825.77;648217;216;31680;-76
2021/03/20 00:38:20;;;;;;;12.00;10.30;;;-2.90;1.40;;;-2.39;100.00;95823.34;642081;221;23520;-76
2021/03/20 00:43:25;;;;;;;11.93;10.70;;;-2.90;1.40;;;-2.44;100.00;95828.95;621425;222;31924;-76
2021/03/20 00:45:54;;;;;;;12.17;10.07;;;-3.00;1.40;;;-2.52;100.00;95827.75;613522;230;23591;-76
2021/03/20 00:48:25;;;;;;;13.15;11.27;;;-3.00;1.40;;;-2.39;100.00;95832.06;608883;229;42821;-76
2021/03/20 00:50:54;;;;;;;8.37;7.57;;;-3.00;1.40;;;-2.46;100.00;95827.95;615804;230;23587;-76
2021/03/20 00:53:23;;;;;;;12.73;10.40;;;-3.00;1.40;;;-2.45;100.00;95827.38;624748;225;31938;-76
2021/03/20 00:55:52;;;;;;;11.50;9.57;;;-2.90;1.40;;;-2.49;100.00;95831.10;640320;221;23523;-76
2021/03/20 00:58:34;;;;;;;11.85;10.38;;;-3.10;1.40;;;-2.57;100.00;95830.46;636123;220;32636;-76
2021/03/20 01:01:08;;;;;;;12.20;10.93;;;-3.00;1.40;;;-2.36;100.00;95831.67;622506;225;31916;-76
2021/03/20 01:03:38;;;;;;;11.57;10.40;;;-3.00;1.40;;;-2.38;100.00;95831.36;645030;221;24496;-77
2021/03/20 01:06:07;;;;;;;13.40;10.40;;;-3.10;1.40;;;-2.35;100.00;95830.80;635453;220;31770;-76
2021/03/20 01:08:36;;;;;;;13.13;9.40;;;-3.20;1.40;;;-2.45;100.00;95830.72;640789;221;23489;-76
2021/03/20 01:12:45;;;;;;;13.90;12.40;;;-3.10;1.40;;;-2.38;100.00;95833.43;646109;216;31636;-77
2021/03/20 01:15:15;;;;;;;12.60;10.27;;;-3.10;1.40;;;-2.37;100.00;95826.92;644079;220;23457;-76
2021/03/20 01:17:44;;;;;;;14.15;12.40;;;-3.10;1.40;;;-2.42;100.00;95823.47;635320;221;31855;-76
2021/03/20 01:20:14;;;;;;;11.93;10.47;;;-3.10;1.40;;;-2.51;100.00;95824.94;645142;220;23469;-76
2021/03/20 01:22:44;;;;;;;13.30;10.17;;;-3.20;1.40;;;-2.56;100.00;95823.64;641084;220;26637;-76
2021/03/20 01:25:12;;;;;;;15.40;11.98;;;-3.20;1.40;;;-2.54;100.00;95823.18;637918;221;31922;-75
2021/03/20 01:27:41;;;;;;;13.60;10.70;;;-3.20;1.40;;;-2.60;100.00;95827.77;639819;220;27958;-75
2021/03/20 01:30:13;;;;;;;14.40;10.93;;;-3.30;1.40;;;-2.60;100.00;95824.47;639903;221;24881;-75
2021/03/20 01:32:42;;;;;;;12.50;9.13;;;-3.30;1.40;;;-2.64;100.00;95825.36;646281;220;24548;-76
2021/03/20 01:35:51;;;;;;;15.68;12.35;;;-3.30;1.40;;;-2.66;100.00;95822.54;650454;216;31659;-75
2021/03/20 01:38:20;;;;;;;16.20;13.20;;;-3.40;1.40;;;-2.72;100.00;95827.20;636244;221;31792;-76
2021/03/20 01:40:51;;;;;;;14.93;10.97;;;-3.40;1.40;;;-2.80;100.00;95827.44;640803;221;24533;-75
2021/03/20 01:43:20;;;;;;;17.12;13.30;;;-3.50;1.40;;;-2.80;100.00;95833.63;635859;221;31793;-75
2021/03/20 01:45:50;;;;;;;14.07;12.57;;;-3.70;1.40;;;-3.01;100.00;95831.69;633563;221;31822;-76
2021/03/20 01:48:23;;;;;;;11.60;10.30;;;-4.00;1.40;;;-3.25;100.00;95828.79;638667;221;28808;-75
2021/03/20 01:51:00;;;;;;;13.80;12.18;;;-4.10;1.40;;;-3.44;100.00;95826.66;634146;221;32046;-75
2021/03/20 01:56:04;;;;;;;14.65;13.10;;;-4.40;1.40;;;-3.49;100.00;95829.44;647364;216;31648;-76
2021/03/20 01:58:34;;;;;;;15.20;11.83;;;-4.30;1.40;;;-3.45;100.00;95826.38;640511;220;23535;-76
2021/03/20 02:01:16;;;;;;;14.30;12.80;;;-4.10;1.40;;;-3.48;100.00;95826.13;636823;220;31786;-75
2021/03/20 02:03:45;;;;;;;19.63;12.23;;;-4.30;1.40;;;-3.57;100.00;95832.75;669476;211;24024;-75
2021/03/20 02:06:14;;;;;;;16.85;13.30;;;-4.40;1.40;;;-3.70;100.00;95828.62;663205;211;31454;-75
2021/03/20 02:08:43;;;;;;;13.53;11.20;;;-4.50;1.40;;;-3.82;100.00;95827.66;670146;211;23400;-75
2021/03/20 02:11:20;;;;;;;17.27;13.65;;;-4.60;1.40;;;-3.94;100.00;95830.67;663917;211;31591;-75
2021/03/20 02:13:50;;;;;;;16.27;13.55;;;-4.70;1.40;;;-4.01;100.00;95830.37;661541;211;31774;-75
2021/03/20 02:18:55;;;;;;;18.02;14.80;;;-4.80;1.40;;;-3.89;100.00;95834.31;631688;221;31789;-75
2021/03/20 02:21:28;;;;;;;14.70;12.03;;;-4.60;1.40;;;-3.75;100.00;95831.98;624597;225;25608;-75
2021/03/20 02:24:37;;;;;;;21.92;14.93;;;-4.30;1.40;;;-3.62;100.00;95835.16;621811;225;32097;-74
2021/03/20 02:27:41;;;;;;;19.90;15.30;;;-4.20;1.40;;;-3.41;100.00;95835.04;647187;216;31768;-76
2021/03/20 02:30:34;;;;;;;19.00;14.90;;;-3.90;1.40;;;-3.31;100.00;95832.67;645904;216;32302;-75
2021/03/20 02:36:15;;;;;;;21.17;15.35;;;-3.90;1.40;;;-3.28;100.00;95831.09;648138;212;31700;-74
2021/03/20 02:38:47;;;;;;;19.52;15.50;;;-3.90;1.40;;;-3.15;100.00;95832.52;636649;220;31845;-75
2021/03/20 02:41:37;;;;;;;17.77;12.03;;;-3.80;1.40;;;-3.11;100.00;95840.97;640436;220;23473;-75
2021/03/20 02:44:20;;;;;;;18.65;14.65;;;-3.70;1.40;;;-2.96;100.00;95832.80;646549;216;31610;-75
2021/03/20 02:46:59;;;;;;;13.63;11.60;;;-3.50;1.40;;;-2.74;100.00;95829.73;642362;220;23591;-75
2021/03/20 02:49:47;;;;;;;16.23;13.03;;;-3.40;1.40;;;-2.67;100.00;95829.45;634600;221;32223;-75
2021/03/20 02:52:47;;;;;;;15.40;13.70;;;-3.20;1.40;;;-2.56;100.00;95824.08;646927;212;42262;-75
2021/03/20 02:55:25;;;;;;;16.35;12.30;;;-3.20;1.40;;;-2.43;100.00;95827.80;618466;226;42665;-75
2021/03/20 02:58:00;;;;;;;12.43;10.43;;;-3.00;1.40;;;-2.42;100.00;95832.89;617067;230;25639;-75
2021/03/20 03:00:38;;;;;;;13.70;12.20;;;-2.90;1.40;;;-2.25;100.00;95830.04;623401;225;32485;-75
2021/03/20 03:03:08;;;;;;;12.63;11.33;;;-2.80;1.40;;;-2.17;100.00;95837.97;610179;229;32363;-75
2021/03/20 03:05:37;;;;;;;13.40;12.00;;;-2.80;1.40;;;-2.10;100.00;95831.34;621270;224;32702;-75
2021/03/20 03:08:11;;;;;;;14.37;9.40;;;-2.70;1.40;;;-2.15;100.00;95838.62;629779;225;24613;-76
2021/03/20 03:10:48;;;;;;;8.90;7.57;;;-2.70;1.40;;;-2.06;100.00;95836.25;621570;229;24605;-76
2021/03/20 03:13:20;;;;;;;10.23;8.07;;;-2.60;1.40;;;-2.07;100.00;95834.21;630345;225;24551;-75
2021/03/20 03:15:51;;;;;;;12.82;9.10;;;-2.60;1.40;;;-1.99;100.00;95833.91;623978;225;31923;-75
2021/03/20 03:18:23;;;;;;;12.83;9.10;;;-2.60;1.40;;;-1.96;100.00;95836.46;627558;225;24558;-75
2021/03/20 03:21:01;;;;;;;10.70;8.90;;;-2.50;1.40;;;-1.89;100.00;95838.44;609516;230;32349;-75
2021/03/20 03:23:30;;;;;;;9.10;8.10;;;-2.50;1.40;;;-1.86;100.00;95839.09;624178;226;24559;-75
2021/03/20 03:26:03;;;;;;;10.90;9.60;;;-2.50;1.40;;;-1.86;100.00;95841.33;615298;229;32103;-75
2021/03/20 03:28:32;;;;;;;11.73;8.90;;;-2.50;1.40;;;-1.88;100.00;95837.78;627975;226;24966;-75
2021/03/20 03:31:01;;;;;;;9.73;8.80;;;-2.50;1.40;;;-1.84;100.00;95838.77;621015;226;31909;-75
2021/03/20 03:35:56;;;;;;;11.00;9.70;;;-2.50;1.40;;;-1.73;100.00;95842.48;650939;216;31620;-75
2021/03/20 03:38:48;;;;;;;11.47;9.47;;;-2.40;1.40;;;-1.73;100.00;95846.24;639691;221;28910;-75
2021/03/20 03:41:29;;;;;;;11.93;9.90;;;-2.40;1.40;;;-1.78;100.00;95842.15;644570;216;31588;-75
2021/03/20 03:43:58;;;;;;;12.67;9.63;;;-2.40;1.40;;;-1.74;100.00;95844.14;635927;220;37676;-75
2021/03/20 03:46:28;;;;;;;10.55;9.20;;;-2.40;1.40;;;-1.73;100.00;95844.92;635717;220;31742;-76
2021/03/20 03:48:58;;;;;;;9.40;7.53;;;-2.40;1.40;;;-1.81;100.00;95845.50;641891;220;23446;-75
2021/03/20 03:51:27;;;;;;;9.77;8.77;;;-2.40;1.40;;;-1.78;100.00;95847.19;643904;219;31840;-75
2021/03/20 03:53:56;;;;;;;9.93;8.93;;;-2.40;1.40;;;-1.73;100.00;95851.94;670248;211;23452;-75
2021/03/20 03:56:52;;;;;;;9.23;8.00;;;-2.40;1.40;;;-1.78;100.00;95841.89;669853;211;24446;-75
2021/03/20 03:59:57;;;;;;;9.70;8.55;;;-2.40;1.40;;;-1.73;100.00;95847.26;647794;216;31599;-74
2021/03/20 04:03:07;;;;;;;11.40;9.32;;;-2.40;1.40;;;-1.70;100.00;95841.72;647252;212;31647;-74
2021/03/20 04:06:10;;;;;;;9.93;8.90;;;-2.40;1.40;;;-1.66;100.00;95842.08;646829;212;31787;-76
2021/03/20 04:09:01;;;;;;;9.70;8.70;;;-2.30;1.40;;;-1.66;100.00;95846.77;646216;216;31813;-75
2021/03/20 04:11:34;;;;;;;10.03;8.00;;;-2.30;1.40;;;-1.58;100.00;95845.41;652533;218;23518;-75
2021/03/20 04:14:28;;;;;;;8.90;8.10;;;-2.30;1.40;;;-1.62;100.00;95846.73;655666;216;24571;-76
2021/03/20 04:17:15;;;;;;;10.13;8.88;;;-2.30;1.40;;;-1.64;100.00;95853.00;644932;216;42205;-75
2021/03/20 04:20:22;;;;;;;9.00;8.10;;;-2.30;1.40;;;-1.63;100.00;95855.92;639483;221;28950;-75
2021/03/20 04:23:04;;;;;;;10.43;8.43;;;-2.30;1.40;;;-1.63;100.00;95855.73;646726;216;42184;-75
2021/03/20 04:25:40;;;;;;;8.67;7.60;;;-2.30;1.40;;;-1.64;100.00;95855.20;639068;220;23536;-75
2021/03/20 04:28:25;;;;;;;9.87;8.87;;;-2.30;1.40;;;-1.53;100.00;95858.17;623195;225;32630;-75
2021/03/20 04:31:25;;;;;;;11.40;9.60;;;-2.30;1.40;;;-1.54;100.00;95858.89;636570;220;31740;-75
2021/03/20 04:35:57;;;;;;;11.15;9.00;;;-2.30;1.40;;;-1.43;100.00;95850.25;645780;212;31602;-76
2021/03/20 04:38:26;;;;;;;8.90;8.00;;;-2.30;1.40;;;-1.52;100.00;95849.16;638331;221;23476;-75
2021/03/20 04:40:56;;;;;;;9.50;8.50;;;-2.30;1.40;;;-1.44;100.00;95855.33;637006;219;31708;-75
2021/03/20 04:43:26;;;;;;;9.43;8.43;;;-2.30;1.40;;;-1.47;100.00;95858.59;664338;211;31612;-76
2021/03/20 04:45:57;;;;;;;11.27;9.77;;;-2.30;1.40;;;-1.47;100.00;95861.90;674499;211;23407;-77
2021/03/20 04:51:21;;;;;;;9.68;8.68;;;-2.30;1.40;;;-1.41;100.00;95866.05;619903;222;31919;-75
2021/03/20 04:53:53;;;;;;;9.27;7.33;;;-2.30;1.40;;;-1.33;100.00;95870.81;617332;230;23536;-76
2021/03/20 04:56:22;;;;;;;9.05;8.15;;;-2.30;1.40;;;-1.47;100.00;95872.36;611680;229;32650;-75
2021/03/20 04:58:52;;;;;;;8.47;7.67;;;-2.30;1.40;;;-1.40;100.00;95869.48;630637;225;23517;-76
2021/03/20 05:01:31;;;;;;;9.43;8.43;;;-2.30;1.40;;;-1.34;100.00;95867.56;613680;230;32248;-76
2021/03/20 05:04:01;;;;;;;8.80;7.90;;;-2.30;1.40;;;-1.46;100.00;95872.83;617798;230;23538;-75
2021/03/20 05:06:30;;;;;;;8.30;7.50;;;-2.30;1.40;;;-1.37;100.00;95871.71;626691;225;26655;-76
2021/03/20 05:08:59;;;;;;;8.90;8.00;;;-2.30;1.40;;;-1.40;100.00;95881.25;623769;225;32016;-75
2021/03/20 05:11:48;;;;;;;10.23;7.57;;;-2.30;1.40;;;-1.48;100.00;95882.39;629255;225;25798;-75
2021/03/20 05:14:38;;;;;;;8.48;7.68;;;-2.30;1.40;;;-1.66;100.00;95880.09;649891;212;31607;-75
2021/03/20 05:17:13;;;;;;;8.60;7.80;;;-2.30;1.40;;;-1.68;100.00;95880.09;642683;221;23475;-76
2021/03/20 05:19:42;;;;;;;8.67;7.77;;;-2.30;1.40;;;-1.68;100.00;95882.70;639372;220;24537;-76
2021/03/20 05:22:16;;;;;;;7.87;7.00;;;-2.30;1.40;;;-1.53;100.00;95887.20;639782;221;24514;-75
2021/03/20 05:24:45;;;;;;;8.90;7.80;;;-2.30;1.40;;;-1.43;100.00;95883.11;635205;219;33150;-75
2021/03/20 05:27:15;;;;;;;11.30;9.43;;;-2.30;1.40;;;-1.53;100.00;95886.28;650388;215;31640;-75
2021/03/20 05:29:44;;;;;;;8.77;7.73;;;-2.30;1.40;;;-1.61;100.00;95887.09;636694;222;31452;-75
2021/03/20 05:32:13;;;;;;;8.57;7.77;;;-2.30;1.40;;;-1.70;100.00;95887.09;656305;215;25008;-76
2021/03/20 05:35:51;;;;;;;9.13;8.10;;;-2.40;1.40;;;-1.57;100.00;95896.11;648577;216;31571;-76
2021/03/20 05:38:20;;;;;;;8.90;7.43;;;-2.30;1.40;;;-1.76;100.00;95891.33;641966;221;23553;-76
2021/03/20 05:40:49;;;;;;;7.20;6.50;;;-2.40;1.40;;;-1.72;100.00;95896.97;642258;221;24509;-75
2021/03/20 05:43:22;;;;;;;7.50;6.70;;;-2.40;1.40;;;-1.89;100.00;95898.59;641718;221;33754;-76
2021/03/20 05:46:01;;;;;;;6.70;6.00;;;-2.40;1.40;;;-1.92;100.00;95898.16;647951;219;24516;-75
2021/03/20 05:48:33;;;;;;;5.50;5.07;;;-2.50;1.40;;;-1.97;100.00;95895.86;670382;211;28713;-75
2021/03/20 05:51:23;;;;;;;6.93;5.67;;;-2.50;1.40;;;-2.22;100.00;95905.30;667857;211;24411;-76
2021/03/20 05:54:21;;;;;;;5.40;4.90;;;-2.60;1.40;;;-2.21;100.00;95900.87;644893;212;31618;-75
2021/03/20 05:57:08;;;;;;;5.57;5.07;;;-2.70;1.40;;;-2.33;100.00;95912.33;641078;220;23534;-75
2021/03/20 05:59:54;;;;;;;5.80;5.20;;;-2.90;1.40;;;-2.19;100.00;95920.12;648981;216;31594;-75
2021/03/20 06:05:02;;;;;;;5.90;5.40;;;-3.00;1.40;;;-2.47;99.63;95921.66;649549;212;31588;-76
2021/03/20 06:10:32;;;;;;;5.28;4.78;;;-3.00;1.40;;;-2.60;98.28;95923.59;646922;216;42183;-75
2021/03/20 06:13:09;;;;;;;6.80;5.20;;;-3.00;1.40;;;-2.57;98.43;95926.21;641137;220;23485;-75
2021/03/20 06:15:51;;;;;;;5.18;4.68;;;-2.90;1.40;;;-2.57;97.98;95926.62;638352;221;32077;-75
2021/03/20 06:21:08;;;;;;;4.90;4.50;;;-3.00;1.40;;;-2.50;97.52;95930.22;618409;225;42617;-76
2021/03/20 06:23:52;;;;;;;4.90;4.50;;;-2.90;1.40;;;-2.24;97.67;95933.48;615728;229;24642;-75
2021/03/20 06:26:34;;;;;;;5.50;5.00;;;-2.80;1.40;;;-2.09;96.48;95938.92;637959;216;31737;-76
2021/03/20 06:29:03;;;;;;;6.20;5.60;;;-2.50;1.40;;;-1.80;94.89;95937.15;628014;224;23578;-76
2021/03/20 06:31:35;;;;;;;7.50;6.63;;;-2.30;1.40;;;-1.92;92.93;95939.23;642082;220;24533;-75
2021/03/20 06:35:53;;;;;;;5.45;4.62;;;-2.50;1.40;;;-2.01;92.11;95952.84;648923;212;31654;-75
2021/03/20 06:38:28;;;;;;;4.43;4.03;;;-2.50;1.40;;;-2.27;92.51;95955.05;639155;220;23488;-75
2021/03/20 06:41:06;;;;;;;7.60;4.73;;;-2.60;1.40;;;-2.26;93.69;95956.05;654207;215;25803;-75
2021/03/20 06:43:35;;;;;;;5.77;5.27;;;-2.50;1.40;;;-1.97;94.46;95959.61;652633;217;24523;-75
2021/03/20 06:46:04;;;;;;;5.40;4.87;;;-2.40;1.40;;;-1.70;92.09;95959.96;667887;211;24473;-76
2021/03/20 06:51:09;;;;;;;5.32;4.82;;;-2.10;1.40;;;-0.78;90.71;95965.69;646780;216;31611;-75
2021/03/20 06:53:49;;;;;;;6.67;5.90;;;-1.90;1.40;;;-1.13;88.86;95969.03;638933;221;23497;-76
2021/03/20 06:56:18;;;;;;;5.57;5.10;;;-1.80;1.40;;;-1.40;89.19;95972.66;640986;220;29795;-76
2021/03/20 06:58:47;;;;;;;8.83;5.60;;;-2.10;1.40;;;-1.09;89.01;95972.15;640244;220;24554;-75
2021/03/20 07:01:24;;;;;;;5.22;4.72;;;-1.90;1.40;;;-1.10;87.25;95968.08;635409;221;31715;-76
2021/03/20 07:06:38;;;;;;;5.82;5.25;;;-1.80;1.40;;;-0.60;86.01;95974.80;650444;216;32497;-75
2021/03/20 07:09:07;;;;;;;6.30;5.63;;;-1.70;1.40;;;-0.76;85.61;95975.91;640167;220;23492;-75
2021/03/20 07:11:53;;;;;;;4.97;4.57;;;-1.60;1.40;;;-0.63;85.71;95977.86;638458;220;24631;-75
2021/03/20 07:14:41;;;;;;;5.40;4.90;;;-1.60;1.40;;;-0.36;85.54;95982.79;645361;220;24486;-75
2021/03/20 07:17:32;;;;;;;5.20;4.80;;;-1.50;1.40;;;-0.38;84.75;95986.23;643339;220;24497;-76
2021/03/20 07:20:13;;;;;;;5.90;5.30;;;-1.60;1.40;;;-1.09;85.71;95992.54;646103;213;42213;-75
2021/03/20 07:22:43;;;;;;;5.93;5.43;;;-1.90;1.40;;;-1.15;87.19;95999.34;643148;220;23460;-76
2021/03/20 07:27:46;;;;;;;5.75;5.15;;;-1.90;1.40;;;-0.77;86.74;95997.17;645588;216;31614;-76
2021/03/20 07:30:50;;;;;;;5.70;5.20;;;-1.70;1.40;;;-0.88;85.73;96007.77;640334;220;27780;-76
2021/03/20 07:35:55;;;;;;;5.90;5.40;;;-1.70;1.40;;;-0.68;86.46;96001.98;619835;222;32015;-77
2021/03/20 07:38:25;;;;;;;6.97;6.47;;;-1.50;1.40;;;-0.09;85.92;96001.23;616617;230;25673;-77
2021/03/20 07:41:08;;;;;;;6.40;5.10;;;-1.20;1.40;;;0.11;83.29;95999.93;627210;225;29908;-77
2021/03/20 07:43:37;;;;;;;6.40;4.80;;;-1.20;1.40;;;-0.44;83.53;96000.31;613713;229;29926;-76
2021/03/20 07:46:08;;;;;;;5.70;5.20;;;-1.20;1.40;;;-0.48;85.02;96001.13;606761;230;24601;-77
2021/03/20 07:48:37;;;;;;;6.90;5.50;;;-1.20;1.40;;;-0.65;84.41;96002.34;614863;230;24666;-76
2021/03/20 07:51:14;;;;;;;5.87;5.27;;;-1.30;1.40;;;-0.53;85.07;96010.52;616080;229;24588;-76
2021/03/20 07:53:48;;;;;;;5.87;5.27;;;-1.30;1.40;;;-0.04;82.92;96011.28;617517;230;24600;-76
2021/03/20 07:56:34;;;;;;;5.23;4.73;;;-1.10;1.40;;;0.19;82.71;96014.16;613886;229;24641;-77
2021/03/20 07:59:07;;;;;;;6.37;5.70;;;-1.10;1.40;;;-0.06;80.87;96020.48;614886;229;24660;-76
2021/03/20 08:01:37;;;;;;;6.20;4.93;;;-1.10;1.40;;;-0.09;81.53;96018.80;615653;230;24582;-76
2021/03/20 08:06:47;;;;;;;6.03;5.43;;;-1.50;1.40;;;-0.18;82.19;96023.04;648129;214;31561;-76
2021/03/20 08:09:27;;;;;;;6.30;5.80;;;-1.40;1.40;;;-0.42;81.56;96031.48;639482;220;23519;-76
2021/03/20 08:12:07;;;;;;;5.37;4.97;;;-1.70;1.40;;;-0.31;80.88;96037.40;640448;220;24553;-74
2021/03/20 08:14:40;;;;;;;5.60;5.10;;;-1.60;1.40;;;-0.02;80.43;96035.84;645648;220;29864;-74
2021/03/20 08:17:12;;;;;;;6.13;5.53;;;-1.50;1.40;;;0.19;79.56;96039.95;647435;219;24551;-74
2021/03/20 08:19:41;;;;;;;5.90;5.50;;;-1.10;1.40;;;0.48;78.19;96040.06;668780;211;24435;-74
2021/03/20 08:22:38;;;;;;;6.20;5.60;;;-0.70;1.40;;;0.37;77.26;96044.07;671174;211;24418;-74
2021/03/20 08:25:47;;;;;;;5.68;5.18;;;-0.20;1.40;;;0.45;76.88;96048.04;646417;216;31753;-76
2021/03/20 08:28:58;;;;;;;6.03;5.43;;;0.10;1.40;;;1.18;77.03;96044.23;629071;224;23619;-76
2021/03/20 08:32:16;;;;;;;5.80;5.30;;;1.00;1.40;;;2.03;72.17;96043.52;647127;212;31919;-76
2021/03/20 08:36:08;;;;;;;6.07;5.57;;;1.30;1.40;;;2.66;72.19;96052.98;647112;216;42175;-76
2021/03/20 08:38:59;;;;;;;5.80;5.30;;;1.70;1.40;;;1.60;69.93;96053.12;641601;221;23471;-76
2021/03/20 08:42:05;;;;;;;5.20;4.80;;;0.90;1.40;;;1.94;71.26;96056.22;646792;216;31974;-77
2021/03/20 08:45:08;;;;;;;5.10;4.70;;;1.20;1.40;;;2.83;69.29;96059.33;639934;221;23486;-77
2021/03/20 08:48:07;;;;;;;6.40;5.87;;;1.90;1.40;;;2.11;65.97;96057.88;640285;221;24509;-77
2021/03/20 08:51:05;;;;;;;4.70;4.40;;;1.70;1.40;;;3.21;68.46;96058.58;617143;222;31968;-77
2021/03/20 08:53:44;;;;;;;5.80;5.40;;;1.50;1.40;;;2.28;65.52;96063.61;616690;229;23600;-77
2021/03/20 08:56:18;;;;;;;5.30;4.90;;;1.00;1.40;;;2.48;69.28;96065.34;616191;230;24612;-78
2021/03/20 08:58:51;;;;;;;5.30;4.80;;;0.60;1.40;;;2.40;67.85;96068.13;608022;229;32194;-77
2021/03/20 09:01:37;;;;;;;4.80;4.43;;;0.50;1.40;;;2.06;67.74;96067.94;629417;225;24559;-76
2021/03/20 09:04:07;;;;;;;5.60;5.10;;;0.30;1.40;;;2.30;68.07;96072.14;626070;225;24548;-76
2021/03/20 09:06:46;;;;;;;5.10;4.70;;;0.60;1.40;;;2.29;66.44;96072.55;622747;229;25623;-77
2021/03/20 09:09:38;;;;;;;5.55;5.05;;;0.70;1.40;;;2.04;67.39;96074.34;613396;229;32061;-76
2021/03/20 09:12:24;;;;;;;5.30;5.00;;;0.70;1.40;;;2.61;65.40;96076.92;626819;225;23490;-77
2021/03/20 09:14:53;;;;;;;5.30;4.90;;;3.20;1.40;;;4.96;65.35;96070.41;631343;225;30901;-77
2021/03/20 09:17:26;;;;;;;5.37;4.87;;;5.80;1.40;;;8.25;53.77;96065.97;614873;230;24603;-77
2021/03/20 09:19:55;;;;;;;3.73;3.53;;;9.40;1.40;;;8.62;47.26;96066.31;627059;225;28925;-77
2021/03/20 09:22:26;;;;;;;5.40;5.00;;;9.60;1.40;;;8.94;52.51;96067.67;615211;229;24608;-77
2021/03/20 09:24:57;;;;;;;4.47;4.17;;;8.10;1.40;;;10.66;43.83;96067.36;627081;225;24603;-77
2021/03/20 09:27:43;;;;;;;4.43;4.12;;;8.50;1.40;;;11.94;48.33;96071.96;601963;234;32442;-77
2021/03/20 09:30:34;;;;;;;11.00;10.00;;;8.40;1.40;;;10.04;46.07;96070.58;610773;232;23579;-77
2021/03/20 09:35:59;;;;;;;5.20;4.70;;;3.40;1.40;;;7.54;51.60;96072.55;645697;212;31642;-75
2021/03/20 09:38:49;;;;;;;5.13;4.63;;;2.10;1.40;;;6.41;56.91;96073.38;636354;220;32104;-75
2021/03/20 09:41:33;;;;;;;4.90;4.50;;;1.20;1.40;;;3.63;58.32;96085.08;635927;220;42437;-76
2021/03/20 09:44:11;;;;;;;4.93;4.63;;;0.20;1.40;;;2.59;61.10;96081.89;653998;216;23441;-75
2021/03/20 09:46:49;;;;;;;4.93;4.53;;;0.00;1.40;;;2.32;63.91;96079.79;667289;211;28805;-75
2021/03/20 09:49:35;;;;;;;5.30;5.00;;;-0.10;1.40;;;2.63;65.54;96083.13;654706;216;24492;-77
2021/03/20 09:52:37;;;;;;;5.85;5.10;;;0.20;1.40;;;2.55;65.23;96080.53;648363;212;31615;-77
2021/03/20 09:55:26;;;;;;;7.10;6.50;;;0.50;1.40;;;3.77;63.39;96082.25;646007;216;42301;-77
2021/03/20 09:57:56;;;;;;;6.47;5.97;;;1.00;1.40;;;3.68;60.59;96085.91;634226;220;43416;-77
2021/03/20 10:00:43;;;;;;;6.53;6.03;;;1.10;1.40;;;3.45;60.65;96081.70;634872;221;31711;-78
2021/03/20 10:03:12;;;;;;;6.93;6.40;;;1.10;1.40;;;5.06;58.99;96078.11;643909;220;24492;-78
2021/03/20 10:05:41;;;;;;;4.97;4.57;;;4.20;1.40;;;6.76;52.11;96076.73;641945;221;25067;-77
2021/03/20 10:08:23;;;;;;;6.07;5.47;;;6.00;1.40;;;4.78;55.35;96079.06;635770;221;31825;-78
2021/03/20 10:10:56;;;;;;;5.93;5.43;;;2.40;1.40;;;4.94;57.30;96073.89;658109;216;23521;-78
2021/03/20 10:16:05;;;;;;;5.30;4.90;;;5.70;1.40;;;8.84;50.36;96072.62;648150;212;31549;-78
2021/03/20 10:18:36;;;;;;;5.03;4.70;;;8.00;1.40;;;11.41;46.75;96071.73;645121;220;29853;-78
2021/03/20 10:21:06;;;;;;;5.03;4.73;;;10.40;1.40;;;10.50;44.31;96066.55;639096;221;24504;-79
2021/03/20 10:23:54;;;;;;;5.03;4.63;;;6.50;1.40;;;6.82;49.08;96070.28;641581;221;24665;-78
2021/03/20 10:26:44;;;;;;;5.25;4.85;;;2.60;1.40;;;6.48;53.68;96074.59;611871;222;43284;-78
2021/03/20 10:29:29;;;;;;;5.93;5.47;;;2.20;1.40;;;4.92;55.26;96079.83;631106;225;23512;-80
2021/03/20 10:35:50;;;;;;;5.20;4.80;;;5.80;1.40;;;10.49;46.57;96065.91;646131;216;31586;-77
2021/03/20 10:38:21;;;;;;;4.83;4.43;;;9.90;1.40;;;14.11;40.93;96060.41;640153;220;23505;-76
2021/03/20 10:41:05;;;;;;;5.03;4.73;;;10.60;1.40;;;10.59;42.93;96070.61;638763;221;26718;-76
2021/03/20 10:43:45;;;;;;;4.90;4.60;;;5.10;1.40;;;10.11;44.65;96075.81;640048;221;24592;-76
2021/03/20 10:46:18;;;;;;;5.33;5.03;;;6.10;1.40;;;7.00;49.82;96081.63;642356;221;24663;-78
2021/03/20 10:48:48;;;;;;;5.10;4.77;;;3.00;1.40;;;5.75;52.64;96077.42;639328;221;25013;-76
2021/03/20 10:51:17;;;;;;;6.03;5.53;;;2.30;1.40;;;4.18;54.58;96082.34;640390;221;24488;-77
2021/03/20 10:53:46;;;;;;;5.90;5.30;;;1.70;1.40;;;4.48;56.01;96083.91;641404;221;24716;-78
2021/03/20 10:56:32;;;;;;;6.03;5.67;;;2.70;1.40;;;4.07;57.44;96080.78;641707;221;24488;-76
2021/03/20 10:59:01;;;;;;;5.90;5.43;;;2.40;1.40;;;3.66;58.89;96090.05;642740;221;24489;-76
2021/03/20 11:01:33;;;;;;;6.37;5.87;;;1.70;1.40;;;3.84;60.22;96089.77;636471;220;31833;-76
2021/03/20 11:04:03;;;;;;;6.53;6.03;;;1.40;1.40;;;3.51;59.68;96090.55;668145;211;23438;-76
2021/03/20 11:06:32;;;;;;;6.80;6.30;;;1.20;1.40;;;3.64;60.18;96093.99;655575;216;24462;-77
2021/03/20 11:09:17;;;;;;;6.37;5.87;;;1.10;1.40;;;2.45;62.80;96096.29;656007;216;24791;-77
2021/03/20 11:11:46;;;;;;;6.93;6.33;;;0.40;1.40;;;2.28;65.61;96090.14;669804;211;27571;-75
2021/03/20 11:14:18;;;;;;;7.73;7.03;;;0.40;1.40;;;1.82;67.52;96094.00;670164;211;24414;-75
2021/03/20 11:16:52;;;;;;;7.13;6.43;;;0.40;1.40;;;1.37;72.06;96096.38;674507;211;24441;-76
2021/03/20 11:19:39;;;;;;;6.47;5.90;;;0.30;1.40;;;1.61;72.56;96093.59;667847;211;24488;-76
2021/03/20 11:22:34;;;;;;;7.87;7.27;;;0.40;1.40;;;2.26;70.76;96091.55;665562;211;41979;-76
2021/03/20 11:25:20;;;;;;;8.38;7.68;;;0.20;1.40;;;2.34;71.50;96100.95;643029;212;32110;-75
2021/03/20 11:27:58;;;;;;;7.30;6.70;;;0.50;1.40;;;2.56;70.45;96103.84;635868;224;23513;-76
2021/03/20 11:30:28;;;;;;;6.90;6.30;;;0.90;1.40;;;2.43;67.92;96098.87;656434;215;24465;-76
2021/03/20 11:32:57;;;;;;;7.67;6.97;;;1.00;1.40;;;2.74;67.94;96102.50;655604;215;24477;-76
2021/03/20 11:35:51;;;;;;;6.70;6.10;;;1.40;1.40;;;2.98;65.82;96102.09;646242;212;32099;-75
2021/03/20 11:38:20;;;;;;;7.40;6.70;;;1.80;1.40;;;3.09;66.75;96101.20;634302;221;31740;-74
2021/03/20 11:40:49;;;;;;;6.70;6.20;;;3.00;1.40;;;4.86;61.47;96090.08;643281;221;27742;-74
2021/03/20 11:43:22;;;;;;;6.30;5.67;;;3.60;1.40;;;4.77;61.53;96088.98;635810;220;24491;-74
2021/03/20 11:45:51;;;;;;;6.07;5.67;;;4.20;1.40;;;5.43;56.75;96083.66;640407;221;24546;-75
2021/03/20 11:48:35;;;;;;;4.53;4.23;;;3.60;1.40;;;5.48;56.87;96087.41;641856;221;24516;-74
2021/03/20 11:51:04;;;;;;;5.20;4.80;;;2.60;1.40;;;4.63;56.76;96082.03;633833;221;31731;-74
2021/03/20 11:53:36;;;;;;;5.60;5.20;;;2.30;1.40;;;5.32;56.67;96080.47;638768;220;24078;-74
2021/03/20 11:56:14;;;;;;;5.10;4.70;;;2.20;1.40;;;3.60;56.79;96089.80;641413;221;24518;-75
2021/03/20 11:58:58;;;;;;;6.50;5.87;;;1.80;1.40;;;2.96;59.81;96088.41;639652;220;24513;-75
2021/03/20 12:04:26;;;;;;;6.32;5.82;;;1.00;1.40;;;3.44;60.84;96095.05;646944;216;31597;-79
2021/03/20 12:07:13;;;;;;;6.50;6.00;;;1.00;1.40;;;2.85;62.86;96097.69;639525;220;31738;-78